Time;durP1;ratioP1;P1;durP2;ratioP2;P2;SDS_P1;SDS_P2;PMS_P1;PMS_P2;Temp;Humidity;BMP_temperature;BMP_pressure;BME280_temperature;BME280_humidity;BME280_pressure;Samples;Min_cycle;Max_cycle;Signal;HPM_P1;HPM_P2
2022/12/18 00:01:34;;;;;;;90.57;32.33;;;;;;;;;;4935491;29;20126;-75
2022/12/18 00:04:01;;;;;;;95.00;33.17;;;;;;;;;;4934361;29;20039;-74
2022/12/18 00:06:29;;;;;;;92.67;34.07;;;;;;;;;;4935559;29;20071;-74
2022/12/18 00:08:56;;;;;;;88.67;34.67;;;;;;;;;;4934318;29;20415;-75
2022/12/18 00:11:23;;;;;;;85.57;31.67;;;;;;;;;;4936217;29;20027;-75
2022/12/18 00:13:49;;;;;;;91.00;32.90;;;;;;;;;;4936155;29;20460;-75
2022/12/18 00:16:19;;;;;;;74.33;29.77;;;;;;;;;;4935812;29;20102;-76
2022/12/18 00:18:45;;;;;;;87.37;30.93;;;;;;;;;;4949755;29;20033;-75
2022/12/18 00:21:12;;;;;;;99.43;32.63;;;;;;;;;;4949952;28;20480;-75
2022/12/18 00:23:39;;;;;;;87.67;33.93;;;;;;;;;;4935088;29;20034;-75
2022/12/18 00:26:08;;;;;;;99.97;33.03;;;;;;;;;;4935096;29;20449;-74
2022/12/18 00:28:34;;;;;;;84.17;32.27;;;;;;;;;;4935067;29;20546;-75
2022/12/18 00:31:07;;;;;;;94.83;31.77;;;;;;;;;;4933427;29;20032;-75
2022/12/18 00:33:33;;;;;;;110.17;33.93;;;;;;;;;;4933442;29;20027;-74
2022/12/18 00:36:06;;;;;;;87.50;32.80;;;;;;;;;;4934356;29;20422;-74
2022/12/18 00:38:32;;;;;;;89.70;33.23;;;;;;;;;;4933789;29;20036;-74
2022/12/18 00:40:57;;;;;;;78.93;31.50;;;;;;;;;;4935023;29;20106;-74
2022/12/18 00:43:23;;;;;;;95.57;33.57;;;;;;;;;;4968009;28;20116;-74
2022/12/18 00:45:48;;;;;;;104.27;34.00;;;;;;;;;;4969740;28;20023;-73
2022/12/18 00:48:14;;;;;;;95.53;30.30;;;;;;;;;;4953398;29;20027;-75
2022/12/18 00:50:40;;;;;;;83.67;33.60;;;;;;;;;;4968440;28;20039;-75
2022/12/18 00:53:05;;;;;;;95.10;29.47;;;;;;;;;;4961399;28;20074;-75
2022/12/18 00:55:31;;;;;;;84.20;32.10;;;;;;;;;;4935071;29;20035;-76
2022/12/18 00:57:57;;;;;;;86.60;32.83;;;;;;;;;;4948902;29;20036;-73
2022/12/18 01:00:23;;;;;;;87.53;32.67;;;;;;;;;;4935585;29;20038;-74
2022/12/18 01:02:48;;;;;;;84.40;30.70;;;;;;;;;;4949279;29;20111;-74
2022/12/18 01:05:15;;;;;;;85.83;31.73;;;;;;;;;;4933515;29;20397;-74
2022/12/18 01:07:41;;;;;;;88.93;33.13;;;;;;;;;;4948871;29;20031;-76
2022/12/18 01:10:07;;;;;;;100.43;33.17;;;;;;;;;;4948796;29;20032;-75
2022/12/18 01:12:33;;;;;;;90.60;32.30;;;;;;;;;;4948710;29;20139;-75
2022/12/18 01:14:59;;;;;;;78.40;31.57;;;;;;;;;;4932488;29;20024;-74
2022/12/18 01:17:24;;;;;;;79.53;28.87;;;;;;;;;;4934208;29;20031;-74
2022/12/18 01:19:50;;;;;;;102.30;32.57;;;;;;;;;;4948338;29;20380;-74
2022/12/18 01:22:15;;;;;;;96.10;30.20;;;;;;;;;;4934100;29;20111;-75
2022/12/18 01:24:41;;;;;;;82.87;30.87;;;;;;;;;;4934418;29;20517;-74
2022/12/18 01:27:06;;;;;;;97.37;33.57;;;;;;;;;;4934424;29;20034;-75
2022/12/18 01:29:32;;;;;;;76.67;30.70;;;;;;;;;;4948674;29;20039;-74
2022/12/18 01:31:57;;;;;;;84.37;31.20;;;;;;;;;;4933766;29;20082;-74
2022/12/18 01:34:24;;;;;;;106.70;33.70;;;;;;;;;;4932657;29;20039;-74
2022/12/18 01:36:51;;;;;;;86.07;31.03;;;;;;;;;;4952849;28;20023;-73
2022/12/18 01:39:18;;;;;;;86.93;30.43;;;;;;;;;;4951682;29;20026;-74
2022/12/18 01:42:03;;;;;;;85.93;30.03;;;;;;;;;;4952505;29;20400;-73
2022/12/18 01:44:59;;;;;;;96.23;31.50;;;;;;;;;;4967632;28;20027;-74
2022/12/18 01:47:47;;;;;;;83.80;31.53;;;;;;;;;;4952820;29;20078;-74
2022/12/18 01:50:18;;;;;;;89.00;30.53;;;;;;;;;;4952640;28;20027;-74
2022/12/18 01:52:48;;;;;;;89.57;31.67;;;;;;;;;;4950930;28;20035;-75
2022/12/18 01:55:17;;;;;;;88.33;30.07;;;;;;;;;;4967501;28;20089;-75
2022/12/18 01:57:43;;;;;;;75.30;30.90;;;;;;;;;;4951209;29;20031;-75
2022/12/18 02:00:15;;;;;;;82.27;29.37;;;;;;;;;;4967617;28;20177;-75
2022/12/18 02:02:42;;;;;;;85.85;28.58;;;;;;;;;;4952956;28;20023;-76
2022/12/18 02:05:10;;;;;;;98.70;32.60;;;;;;;;;;4951406;29;20513;-76
2022/12/18 02:07:55;;;;;;;83.83;31.93;;;;;;;;;;4952594;28;20093;-75
2022/12/18 02:10:34;;;;;;;98.03;29.93;;;;;;;;;;4918682;28;20067;-76
2022/12/18 02:13:14;;;;;;;91.20;31.63;;;;;;;;;;4967564;28;20487;-75
2022/12/18 02:16:07;;;;;;;79.07;29.13;;;;;;;;;;4953227;28;20031;-75
2022/12/18 02:18:44;;;;;;;79.50;27.50;;;;;;;;;;4953007;28;20049;-74
2022/12/18 02:21:27;;;;;;;86.43;32.57;;;;;;;;;;4953195;28;20029;-74
2022/12/18 02:24:10;;;;;;;91.70;31.33;;;;;;;;;;4951486;29;20027;-75
2022/12/18 02:26:52;;;;;;;89.23;30.67;;;;;;;;;;4953273;28;20110;-74
2022/12/18 02:29:22;;;;;;;78.82;31.05;;;;;;;;;;4952738;29;20019;-73
2022/12/18 02:31:57;;;;;;;72.30;28.50;;;;;;;;;;4951521;28;20480;-74
2022/12/18 02:34:27;;;;;;;94.40;32.67;;;;;;;;;;4950757;29;20066;-75
2022/12/18 02:36:54;;;;;;;70.93;28.40;;;;;;;;;;4947028;28;20024;-75
2022/12/18 02:39:23;;;;;;;71.80;29.67;;;;;;;;;;4933135;29;20084;-75
2022/12/18 02:41:50;;;;;;;91.20;34.60;;;;;;;;;;4938076;29;20055;-75
2022/12/18 02:44:15;;;;;;;96.17;32.77;;;;;;;;;;4935369;29;20035;-74
2022/12/18 02:46:45;;;;;;;88.80;32.40;;;;;;;;;;4951276;28;20027;-75
2022/12/18 02:49:36;;;;;;;92.23;31.80;;;;;;;;;;4952706;29;20031;-75
2022/12/18 02:52:33;;;;;;;94.00;30.43;;;;;;;;;;4934880;29;20019;-75
2022/12/18 02:55:12;;;;;;;85.00;31.60;;;;;;;;;;4951943;29;20024;-75
2022/12/18 02:57:55;;;;;;;107.40;34.23;;;;;;;;;;4951072;29;20031;-75
2022/12/18 03:00:27;;;;;;;;;;;;;;;;;;4933635;29;20106;-74
2022/12/18 03:03:18;;;;;;;87.50;35.25;;;;;;;;;;4938259;29;19910;-74
2022/12/18 03:05:51;;;;;;;92.33;30.03;;;;;;;;;;4938714;29;20036;-74
2022/12/18 03:08:45;;;;;;;75.40;29.57;;;;;;;;;;4953362;29;20031;-76
2022/12/18 03:11:12;;;;;;;81.00;32.70;;;;;;;;;;4934640;29;20532;-74
2022/12/18 03:13:48;;;;;;;91.20;32.13;;;;;;;;;;4939287;29;20093;-75
2022/12/18 03:16:27;;;;;;;91.83;31.23;;;;;;;;;;4954010;29;20020;-75
2022/12/18 03:18:57;;;;;;;97.37;30.13;;;;;;;;;;4937699;29;20428;-73
2022/12/18 03:21:29;;;;;;;96.20;31.87;;;;;;;;;;4938970;29;20552;-74
2022/12/18 03:23:56;;;;;;;102.05;33.22;;;;;;;;;;4938586;29;20389;-75
2022/12/18 03:26:26;;;;;;;97.33;34.53;;;;;;;;;;4938692;29;20020;-75
2022/12/18 03:28:57;;;;;;;88.30;31.70;;;;;;;;;;4939447;29;20047;-75
2022/12/18 03:31:24;;;;;;;94.97;31.83;;;;;;;;;;4939534;29;20064;-75
2022/12/18 03:33:57;;;;;;;88.93;31.60;;;;;;;;;;4937253;29;20046;-74
2022/12/18 03:36:23;;;;;;;95.70;31.70;;;;;;;;;;4953272;29;20024;-75
2022/12/18 03:38:49;;;;;;;99.17;35.23;;;;;;;;;;4937489;29;20032;-75
2022/12/18 03:41:33;;;;;;;101.97;32.93;;;;;;;;;;4953042;29;20024;-75
2022/12/18 03:43:59;;;;;;;96.20;32.90;;;;;;;;;;4936981;29;20036;-75
2022/12/18 03:46:29;;;;;;;87.87;30.97;;;;;;;;;;4937313;29;20035;-75
2022/12/18 03:49:06;;;;;;;99.53;33.33;;;;;;;;;;4952889;29;20107;-75
2022/12/18 03:51:50;;;;;;;96.60;31.53;;;;;;;;;;4953274;29;20031;-75
2022/12/18 03:54:16;;;;;;;91.10;34.10;;;;;;;;;;4953064;28;20059;-75
2022/12/18 03:56:52;;;;;;;94.53;32.80;;;;;;;;;;4937277;29;20053;-76
2022/12/18 03:59:19;;;;;;;90.67;28.57;;;;;;;;;;4937028;29;20077;-75
2022/12/18 04:01:50;;;;;;;96.60;33.23;;;;;;;;;;4953125;29;20027;-75
2022/12/18 04:04:18;;;;;;;103.22;33.78;;;;;;;;;;4937522;29;20030;-75
2022/12/18 04:06:47;;;;;;;98.23;32.27;;;;;;;;;;4938887;29;20027;-75
2022/12/18 04:09:13;;;;;;;81.07;32.00;;;;;;;;;;4938742;29;20036;-75
2022/12/18 04:11:41;;;;;;;89.90;31.40;;;;;;;;;;4939046;29;20024;-75
2022/12/18 04:14:06;;;;;;;94.10;34.07;;;;;;;;;;4949489;28;20048;-75
2022/12/18 04:16:32;;;;;;;94.23;31.63;;;;;;;;;;4935655;29;20042;-75
2022/12/18 04:18:57;;;;;;;93.07;30.30;;;;;;;;;;4935238;29;20027;-75
2022/12/18 04:21:23;;;;;;;81.27;27.73;;;;;;;;;;4934067;29;20859;-75
2022/12/18 04:23:49;;;;;;;84.10;30.80;;;;;;;;;;4935351;29;20023;-74
2022/12/18 04:26:14;;;;;;;97.07;33.47;;;;;;;;;;4949975;29;20024;-75
2022/12/18 04:28:41;;;;;;;94.20;29.73;;;;;;;;;;4934081;29;20046;-77
2022/12/18 04:31:07;;;;;;;88.30;30.50;;;;;;;;;;4950003;29;20110;-75
2022/12/18 04:33:32;;;;;;;75.37;27.57;;;;;;;;;;4935511;29;20060;-74
2022/12/18 04:35:58;;;;;;;73.30;29.23;;;;;;;;;;4933804;29;20039;-75
2022/12/18 04:38:23;;;;;;;81.70;27.47;;;;;;;;;;4966631;28;20479;-74
2022/12/18 04:40:48;;;;;;;75.00;26.73;;;;;;;;;;4969197;28;20109;-74
2022/12/18 04:43:14;;;;;;;64.97;24.97;;;;;;;;;;4968895;28;20062;-74
2022/12/18 04:45:39;;;;;;;72.70;26.77;;;;;;;;;;4952506;29;20483;-73
2022/12/18 04:48:05;;;;;;;65.23;24.90;;;;;;;;;;4953643;28;20035;-76
2022/12/18 04:50:32;;;;;;;65.97;25.30;;;;;;;;;;4968660;28;20028;-74
2022/12/18 04:52:58;;;;;;;62.63;23.80;;;;;;;;;;4968545;28;20082;-74
2022/12/18 04:55:24;;;;;;;74.93;24.17;;;;;;;;;;4952023;29;20031;-75
2022/12/18 04:57:50;;;;;;;64.87;24.43;;;;;;;;;;4953608;28;20046;-75
2022/12/18 05:00:15;;;;;;;79.70;25.00;;;;;;;;;;4967811;28;20023;-74
2022/12/18 05:02:41;;;;;;;60.87;22.53;;;;;;;;;;4953980;29;20027;-75
2022/12/18 05:05:07;;;;;;;68.50;25.73;;;;;;;;;;4953421;28;20019;-74
2022/12/18 05:07:33;;;;;;;69.43;24.90;;;;;;;;;;4967463;28;20472;-75
2022/12/18 05:09:58;;;;;;;69.33;23.93;;;;;;;;;;4951587;29;20054;-75
2022/12/18 05:12:24;;;;;;;76.57;24.77;;;;;;;;;;4952111;29;20077;-75
2022/12/18 05:14:49;;;;;;;73.43;25.13;;;;;;;;;;4951862;29;20480;-75
2022/12/18 05:17:15;;;;;;;54.83;22.10;;;;;;;;;;4953159;28;20038;-74
2022/12/18 05:19:40;;;;;;;62.03;22.83;;;;;;;;;;4951485;29;20030;-74
2022/12/18 05:22:09;;;;;;;67.03;22.27;;;;;;;;;;4953071;28;20023;-73
2022/12/18 05:24:35;;;;;;;65.67;23.83;;;;;;;;;;4952995;28;20042;-75
2022/12/18 05:27:00;;;;;;;57.10;20.40;;;;;;;;;;4953481;28;20031;-75
2022/12/18 05:29:26;;;;;;;61.63;20.60;;;;;;;;;;4953599;29;20038;-75
2022/12/18 05:31:51;;;;;;;70.77;23.20;;;;;;;;;;4968202;28;20031;-75
2022/12/18 05:34:17;;;;;;;59.10;22.23;;;;;;;;;;4952067;29;20027;-75
2022/12/18 05:36:42;;;;;;;61.67;23.10;;;;;;;;;;4967276;28;20077;-76
2022/12/18 05:39:08;;;;;;;56.70;21.27;;;;;;;;;;4935319;29;20027;-74
2022/12/18 05:41:34;;;;;;;58.23;22.43;;;;;;;;;;4935642;29;20055;-75
2022/12/18 05:43:59;;;;;;;61.70;22.27;;;;;;;;;;4935678;29;20467;-75
2022/12/18 05:46:25;;;;;;;63.30;24.33;;;;;;;;;;4953803;29;20416;-75
2022/12/18 05:48:51;;;;;;;69.57;22.03;;;;;;;;;;4953765;29;20383;-75
2022/12/18 05:51:19;;;;;;;55.60;20.63;;;;;;;;;;4935281;29;20023;-74
2022/12/18 05:53:45;;;;;;;60.10;22.97;;;;;;;;;;4951383;29;20177;-73
2022/12/18 05:56:22;;;;;;;60.77;22.23;;;;;;;;;;4951312;29;20122;-74
2022/12/18 05:58:52;;;;;;;53.43;20.20;;;;;;;;;;4953675;29;20031;-75
2022/12/18 06:01:24;;;;;;;61.77;22.40;;;;;;;;;;4953080;29;20448;-75
2022/12/18 06:03:50;;;;;;;47.70;19.67;;;;;;;;;;4950978;29;20035;-75
2022/12/18 06:06:24;;;;;;;54.80;19.53;;;;;;;;;;4952474;29;20388;-75
2022/12/18 06:08:50;;;;;;;63.67;20.47;;;;;;;;;;4952643;29;20102;-74
2022/12/18 06:11:21;;;;;;;52.80;18.77;;;;;;;;;;4951306;29;20042;-74
2022/12/18 06:13:50;;;;;;;44.27;18.20;;;;;;;;;;4951409;29;20038;-74
2022/12/18 06:16:15;;;;;;;52.40;17.47;;;;;;;;;;4952005;29;20046;-75
2022/12/18 06:18:41;;;;;;;75.53;19.80;;;;;;;;;;4952744;29;20031;-75
2022/12/18 06:21:06;;;;;;;53.63;17.43;;;;;;;;;;4951656;29;20027;-75
2022/12/18 06:23:31;;;;;;;47.43;17.37;;;;;;;;;;4953562;28;20054;-74
2022/12/18 06:25:57;;;;;;;55.43;18.00;;;;;;;;;;4935683;29;20030;-76
2022/12/18 06:28:23;;;;;;;49.83;16.53;;;;;;;;;;4952045;29;20106;-74
2022/12/18 06:30:50;;;;;;;55.20;19.40;;;;;;;;;;4934350;29;20035;-75
2022/12/18 06:33:16;;;;;;;47.37;17.47;;;;;;;;;;4934326;29;20066;-76
2022/12/18 06:35:41;;;;;;;49.90;16.70;;;;;;;;;;4933577;29;20024;-75
2022/12/18 06:38:07;;;;;;;50.00;16.33;;;;;;;;;;4945682;29;20046;-74
2022/12/18 06:40:33;;;;;;;44.60;17.37;;;;;;;;;;4950432;29;20023;-75
2022/12/18 06:42:58;;;;;;;50.17;17.30;;;;;;;;;;4966329;28;20863;-75
2022/12/18 06:45:24;;;;;;;49.77;17.57;;;;;;;;;;4952005;28;20020;-77
2022/12/18 06:47:50;;;;;;;38.60;14.97;;;;;;;;;;4966548;28;20030;-74
2022/12/18 06:50:16;;;;;;;44.03;15.40;;;;;;;;;;4951634;28;20042;-74
2022/12/18 06:52:45;;;;;;;50.50;17.70;;;;;;;;;;4950256;29;20349;-77
2022/12/18 06:55:12;;;;;;;47.60;17.30;;;;;;;;;;4949698;28;20031;-75
2022/12/18 06:57:37;;;;;;;49.30;17.57;;;;;;;;;;4950153;29;20031;-75
2022/12/18 07:00:05;;;;;;;61.50;18.97;;;;;;;;;;4966148;28;20028;-74
2022/12/18 07:02:31;;;;;;;50.90;18.50;;;;;;;;;;4966304;28;20041;-75
2022/12/18 07:04:56;;;;;;;48.30;16.37;;;;;;;;;;4965868;28;20086;-77
2022/12/18 07:07:22;;;;;;;60.43;17.63;;;;;;;;;;4949747;29;20023;-74
2022/12/18 07:09:49;;;;;;;55.87;17.70;;;;;;;;;;4951346;28;20066;-75
2022/12/18 07:12:15;;;;;;;54.33;17.50;;;;;;;;;;4951247;28;20037;-76
2022/12/18 07:14:40;;;;;;;58.80;18.20;;;;;;;;;;4951134;28;20110;-75
2022/12/18 07:17:06;;;;;;;48.27;17.37;;;;;;;;;;4951036;28;20114;-74
2022/12/18 07:19:31;;;;;;;59.57;16.47;;;;;;;;;;4951341;28;20031;-75
2022/12/18 07:21:57;;;;;;;52.87;16.50;;;;;;;;;;4949953;29;20583;-75
2022/12/18 07:24:22;;;;;;;50.87;17.60;;;;;;;;;;4951561;28;20027;-75
2022/12/18 07:26:48;;;;;;;48.37;14.73;;;;;;;;;;4951597;28;20534;-75
2022/12/18 07:29:13;;;;;;;49.50;15.23;;;;;;;;;;4966267;28;20349;-75
2022/12/18 07:31:39;;;;;;;38.77;13.27;;;;;;;;;;4966160;28;20024;-73
2022/12/18 07:34:04;;;;;;;43.37;12.97;;;;;;;;;;4950827;28;20432;-75
2022/12/18 07:36:30;;;;;;;44.43;15.57;;;;;;;;;;4951127;28;20031;-75
2022/12/18 07:38:56;;;;;;;38.50;12.03;;;;;;;;;;4950100;29;20031;-77
2022/12/18 07:41:21;;;;;;;38.20;13.13;;;;;;;;;;4951308;29;20035;-74
2022/12/18 07:43:47;;;;;;;42.93;16.40;;;;;;;;;;4950018;29;20027;-74
2022/12/18 07:46:14;;;;;;;38.07;13.50;;;;;;;;;;4933944;29;20023;-75
2022/12/18 07:48:41;;;;;;;38.13;13.47;;;;;;;;;;4953261;28;20031;-76
2022/12/18 07:51:07;;;;;;;40.07;13.77;;;;;;;;;;4953162;29;20038;-76
2022/12/18 07:53:34;;;;;;;40.30;13.50;;;;;;;;;;4937716;29;20055;-77
2022/12/18 07:56:02;;;;;;;41.63;13.53;;;;;;;;;;4955094;28;20238;-75
2022/12/18 07:58:29;;;;;;;40.67;13.47;;;;;;;;;;4953902;29;20081;-76
2022/12/18 08:01:02;;;;;;;38.53;13.67;;;;;;;;;;4955570;29;20046;-75
2022/12/18 08:03:28;;;;;;;42.47;14.20;;;;;;;;;;4955406;29;20039;-74
2022/12/18 08:05:58;;;;;;;45.43;13.80;;;;;;;;;;4937544;29;20039;-74
2022/12/18 08:08:25;;;;;;;37.47;14.00;;;;;;;;;;4955098;29;20460;-75
2022/12/18 08:10:50;;;;;;;37.10;14.30;;;;;;;;;;4937087;29;20126;-76
2022/12/18 08:13:16;;;;;;;36.97;11.77;;;;;;;;;;4952870;29;20116;-76
2022/12/18 08:15:41;;;;;;;46.63;14.20;;;;;;;;;;4954472;29;20038;-74
2022/12/18 08:18:07;;;;;;;37.80;14.17;;;;;;;;;;4952724;29;20483;-74
2022/12/18 08:20:32;;;;;;;43.60;12.97;;;;;;;;;;4937314;29;20027;-74
2022/12/18 08:22:57;;;;;;;39.37;13.23;;;;;;;;;;4937094;29;20062;-75
2022/12/18 08:25:23;;;;;;;46.33;15.57;;;;;;;;;;4952796;28;20118;-75
2022/12/18 08:27:49;;;;;;;50.30;14.40;;;;;;;;;;4954391;29;20091;-75
2022/12/18 08:30:15;;;;;;;49.63;14.07;;;;;;;;;;4954628;28;20082;-74
2022/12/18 08:32:40;;;;;;;40.23;13.60;;;;;;;;;;4953738;29;20035;-75
2022/12/18 08:35:06;;;;;;;41.27;14.50;;;;;;;;;;4936466;29;20031;-75
2022/12/18 08:37:32;;;;;;;43.30;14.70;;;;;;;;;;4943184;29;20031;-76
2022/12/18 08:39:57;;;;;;;37.10;13.43;;;;;;;;;;4954024;28;20443;-75
2022/12/18 08:45:07;;;;;;;30.40;11.00;;;;;;;;;;4953541;29;20038;-76
2022/12/18 08:47:33;;;;;;;26.53;9.73;;;;;;;;;;4953368;29;20042;-76
2022/12/18 08:49:58;;;;;;;30.10;11.00;;;;;;;;;;4953952;29;20033;-76
2022/12/18 08:52:24;;;;;;;28.73;11.03;;;;;;;;;;4952093;29;20758;-76
2022/12/18 08:54:49;;;;;;;31.00;11.60;;;;;;;;;;4954149;28;20031;-75
2022/12/18 08:57:15;;;;;;;34.17;11.97;;;;;;;;;;4953720;28;20023;-75
2022/12/18 08:59:41;;;;;;;35.70;10.87;;;;;;;;;;4953481;28;20152;-75
2022/12/18 09:02:09;;;;;;;32.57;12.13;;;;;;;;;;4954195;28;20049;-75
2022/12/18 09:04:35;;;;;;;35.07;13.43;;;;;;;;;;4954498;28;20047;-74
2022/12/18 09:07:00;;;;;;;37.43;11.87;;;;;;;;;;4954800;28;20433;-75
2022/12/18 09:09:26;;;;;;;32.70;11.53;;;;;;;;;;4951785;29;20066;-76
2022/12/18 09:11:51;;;;;;;32.13;10.63;;;;;;;;;;4967782;28;20684;-74
2022/12/18 09:14:17;;;;;;;30.00;11.50;;;;;;;;;;4951607;29;20074;-75
2022/12/18 09:16:42;;;;;;;44.50;14.37;;;;;;;;;;4953206;28;20097;-75
2022/12/18 09:19:09;;;;;;;43.37;12.87;;;;;;;;;;4967941;28;20070;-74
2022/12/18 09:21:37;;;;;;;40.83;11.97;;;;;;;;;;4953107;29;20067;-75
2022/12/18 09:24:04;;;;;;;32.43;12.03;;;;;;;;;;4952123;29;20396;-75
2022/12/18 09:26:30;;;;;;;44.43;12.77;;;;;;;;;;4951401;29;20487;-76
2022/12/18 09:28:55;;;;;;;32.70;12.63;;;;;;;;;;4968216;28;20027;-75
2022/12/18 09:31:23;;;;;;;35.30;11.33;;;;;;;;;;4967561;28;20086;-74
2022/12/18 09:33:48;;;;;;;41.60;13.80;;;;;;;;;;4952766;28;20036;-76
2022/12/18 09:36:17;;;;;;;36.30;11.50;;;;;;;;;;4951319;29;20086;-76
2022/12/18 09:38:43;;;;;;;42.30;11.73;;;;;;;;;;4953053;29;20377;-74
2022/12/18 09:41:30;;;;;;;37.53;13.20;;;;;;;;;;4952627;29;20035;-74
2022/12/18 09:44:01;;;;;;;38.20;12.53;;;;;;;;;;4953045;29;20472;-74
2022/12/18 09:46:30;;;;;;;33.70;11.33;;;;;;;;;;4936011;29;20023;-74
2022/12/18 09:49:01;;;;;;;32.17;12.67;;;;;;;;;;4952993;29;20049;-73
2022/12/18 09:51:49;;;;;;;35.07;12.80;;;;;;;;;;4935383;29;20126;-76
2022/12/18 09:54:21;;;;;;;43.80;14.47;;;;;;;;;;4950698;29;20612;-81
2022/12/18 09:56:47;;;;;;;38.20;13.23;;;;;;;;;;4935057;29;20037;-79
2022/12/18 09:59:21;;;;;;;41.17;12.80;;;;;;;;;;4950971;29;20078;-77
2022/12/18 10:01:47;;;;;;;34.53;12.40;;;;;;;;;;4935116;29;20078;-80
2022/12/18 10:04:14;;;;;;;37.93;13.90;;;;;;;;;;4935360;29;20371;-81
2022/12/18 10:06:57;;;;;;;46.60;14.50;;;;;;;;;;4951280;29;20027;-80
2022/12/18 10:09:43;;;;;;;35.43;11.70;;;;;;;;;;4935105;29;20034;-79
2022/12/18 10:12:23;;;;;;;37.83;12.30;;;;;;;;;;4951737;28;20113;-80
2022/12/18 10:14:52;;;;;;;32.90;11.50;;;;;;;;;;4952697;29;20074;-81
2022/12/18 10:17:23;;;;;;;35.83;13.33;;;;;;;;;;4956823;29;20081;-79
2022/12/18 10:20:01;;;;;;;38.42;13.18;;;;;;;;;;4960138;29;20030;-80
2022/12/18 10:22:45;;;;;;;31.93;12.03;;;;;;;;;;4958602;29;20027;-78
2022/12/18 10:25:26;;;;;;;31.73;11.50;;;;;;;;;;4938658;29;20050;-81
2022/12/18 10:27:57;;;;;;;33.23;12.70;;;;;;;;;;4953574;29;20030;-82
2022/12/18 10:30:24;;;;;;;39.03;12.18;;;;;;;;;;4935431;29;20058;-82
2022/12/18 10:32:51;;;;;;;34.63;13.43;;;;;;;;;;4951267;29;20058;-76
2022/12/18 10:35:25;;;;;;;38.33;13.50;;;;;;;;;;4951273;29;20070;-76
2022/12/18 10:38:21;;;;;;;36.10;13.67;;;;;;;;;;4952371;29;20384;-77
2022/12/18 10:40:57;;;;;;;38.57;13.00;;;;;;;;;;4947791;28;20050;-76
2022/12/18 10:43:31;;;;;;;35.27;12.97;;;;;;;;;;4952213;28;20427;-77
2022/12/18 10:46:09;;;;;;;31.53;12.43;;;;;;;;;;4966941;28;20373;-76
2022/12/18 10:48:47;;;;;;;38.23;13.77;;;;;;;;;;4950433;29;20464;-76
2022/12/18 10:51:22;;;;;;;40.43;13.60;;;;;;;;;;4966666;28;20027;-78
2022/12/18 10:53:56;;;;;;;45.60;17.27;;;;;;;;;;4966586;28;20123;-77
2022/12/18 10:56:24;;;;;;;32.23;12.57;;;;;;;;;;4952040;28;20031;-78
2022/12/18 10:59:02;;;;;;;28.77;11.50;;;;;;;;;;4952981;29;20111;-77
2022/12/18 11:01:45;;;;;;;34.87;13.17;;;;;;;;;;4966886;28;20043;-76
2022/12/18 11:04:21;;;;;;;39.93;11.93;;;;;;;;;;4950103;29;20484;-77
2022/12/18 11:06:56;;;;;;;39.67;12.73;;;;;;;;;;4950479;29;20019;-76
2022/12/18 11:09:31;;;;;;;36.20;13.20;;;;;;;;;;4951938;28;20035;-76
2022/12/18 11:12:01;;;;;;;30.60;11.70;;;;;;;;;;4950719;29;20123;-76
2022/12/18 11:14:32;;;;;;;37.70;14.10;;;;;;;;;;4951686;29;20034;-76
2022/12/18 11:16:59;;;;;;;38.27;13.80;;;;;;;;;;4951772;28;20037;-77
2022/12/18 11:19:35;;;;;;;31.60;11.77;;;;;;;;;;4951866;28;20027;-76
2022/12/18 11:22:16;;;;;;;43.73;14.93;;;;;;;;;;4952334;28;20031;-76
2022/12/18 11:24:42;;;;;;;45.92;14.00;;;;;;;;;;4953625;29;20115;-76
2022/12/18 11:27:17;;;;;;;45.53;15.17;;;;;;;;;;4955799;28;20103;-77
2022/12/18 11:29:43;;;;;;;42.13;14.77;;;;;;;;;;4969592;28;20031;-76
2022/12/18 11:32:14;;;;;;;40.50;13.67;;;;;;;;;;4969509;28;20476;-76
2022/12/18 11:34:46;;;;;;;32.53;13.55;;;;;;;;;;4955807;28;20059;-76
2022/12/18 11:37:14;;;;;;;43.53;14.93;;;;;;;;;;4955600;28;20494;-77
2022/12/18 11:39:49;;;;;;;35.07;13.27;;;;;;;;;;4937914;29;20110;-76
2022/12/18 11:42:43;;;;;;;39.07;13.17;;;;;;;;;;4953412;29;20057;-77
2022/12/18 11:45:25;;;;;;;43.47;14.10;;;;;;;;;;4955106;29;20064;-77
2022/12/18 11:48:29;;;;;;;;;;;;;;;;;;4954426;29;20471;-77
2022/12/18 11:50:59;;;;;;;38.03;13.20;;;;;;;;;;4895827;29;20002;-76
2022/12/18 11:53:26;;;;;;;44.43;15.07;;;;;;;;;;4895876;29;20089;-76
2022/12/18 11:56:13;;;;;;;46.37;14.27;;;;;;;;;;4925752;28;20039;-77
2022/12/18 11:59:00;;;;;;;44.53;14.13;;;;;;;;;;4938277;29;20031;-75
2022/12/18 12:01:42;;;;;;;38.23;13.17;;;;;;;;;;4954695;29;20055;-74
2022/12/18 12:04:19;;;;;;;44.60;15.60;;;;;;;;;;4955256;29;20122;-76
2022/12/18 12:07:06;;;;;;;44.50;13.40;;;;;;;;;;4955151;29;20065;-76
2022/12/18 12:09:49;;;;;;;35.57;12.87;;;;;;;;;;4955499;28;20035;-76
2022/12/18 12:12:45;;;;;;;44.28;16.65;;;;;;;;;;4954467;29;20130;-76
2022/12/18 12:15:32;;;;;;;43.40;13.67;;;;;;;;;;4954328;28;20043;-74
2022/12/18 12:18:22;;;;;;;38.93;15.10;;;;;;;;;;4937837;29;20028;-75
2022/12/18 12:21:01;;;;;;;43.10;17.63;;;;;;;;;;4955232;29;20023;-76
2022/12/18 12:23:33;;;;;;;50.40;16.63;;;;;;;;;;4954661;29;20059;-76
2022/12/18 12:26:08;;;;;;;42.85;16.92;;;;;;;;;;4955420;28;20066;-75
2022/12/18 12:28:42;;;;;;;47.37;16.87;;;;;;;;;;4955326;29;20031;-75
2022/12/18 12:31:28;;;;;;;52.33;17.07;;;;;;;;;;4955576;29;20038;-75
2022/12/18 12:34:23;;;;;;;38.93;14.53;;;;;;;;;;4953724;28;20031;-78
2022/12/18 12:37:17;;;;;;;40.90;15.73;;;;;;;;;;4955318;29;20030;-77
2022/12/18 12:39:45;;;;;;;41.63;15.40;;;;;;;;;;4955192;29;20114;-75
2022/12/18 12:45:20;;;;;;;41.13;15.80;;;;;;;;;;4954486;29;20535;-77
2022/12/18 12:47:48;;;;;;;52.20;17.97;;;;;;;;;;4954970;29;20034;-77
2022/12/18 12:50:18;;;;;;;46.00;16.73;;;;;;;;;;4954771;29;20074;-76
2022/12/18 12:52:55;;;;;;;50.53;16.23;;;;;;;;;;4952979;29;20035;-76
2022/12/18 12:55:24;;;;;;;44.37;16.37;;;;;;;;;;4952790;29;20114;-76
2022/12/18 12:58:05;;;;;;;49.53;16.87;;;;;;;;;;4936720;29;20027;-78
2022/12/18 13:00:41;;;;;;;50.27;18.33;;;;;;;;;;4936207;29;20117;-76
2022/12/18 13:03:25;;;;;;;50.73;17.73;;;;;;;;;;4952345;29;20031;-77
2022/12/18 13:05:59;;;;;;;43.80;15.83;;;;;;;;;;4936352;29;20023;-76
2022/12/18 13:08:32;;;;;;;49.53;17.80;;;;;;;;;;4953425;29;20110;-76
2022/12/18 13:13:55;;;;;;;41.47;17.00;;;;;;;;;;4953220;29;20443;-76
2022/12/18 13:16:23;;;;;;;52.50;17.37;;;;;;;;;;4953523;29;20023;-76
2022/12/18 13:18:57;;;;;;;44.03;16.77;;;;;;;;;;4952439;29;20059;-76
2022/12/18 13:21:26;;;;;;;56.50;16.63;;;;;;;;;;4952599;29;20463;-76
2022/12/18 13:23:53;;;;;;;57.57;19.40;;;;;;;;;;4936676;29;20083;-75
2022/12/18 13:26:18;;;;;;;56.60;19.70;;;;;;;;;;4952712;29;20023;-75
2022/12/18 13:28:47;;;;;;;46.40;17.60;;;;;;;;;;4936992;29;20038;-75
2022/12/18 13:31:41;;;;;;;51.23;18.50;;;;;;;;;;4953759;29;20031;-75
2022/12/18 13:34:25;;;;;;;54.20;18.47;;;;;;;;;;4953565;29;20106;-75
2022/12/18 13:36:52;;;;;;;48.93;18.07;;;;;;;;;;4953721;29;20068;-75
2022/12/18 13:39:17;;;;;;;43.60;16.93;;;;;;;;;;4953324;28;20027;-76
2022/12/18 13:41:45;;;;;;;47.07;17.67;;;;;;;;;;4935612;29;20559;-77
2022/12/18 13:44:37;;;;;;;43.30;17.87;;;;;;;;;;4952339;29;20086;-75
2022/12/18 13:47:05;;;;;;;36.27;15.00;;;;;;;;;;4952843;29;20057;-75
2022/12/18 13:49:39;;;;;;;45.80;18.10;;;;;;;;;;4935466;29;20121;-78
2022/12/18 13:52:43;;;;;;;83.37;24.80;;;;;;;;;;4951995;28;20035;-76
2022/12/18 13:55:19;;;;;;;44.07;15.83;;;;;;;;;;4952331;29;20110;-77
2022/12/18 13:57:44;;;;;;;38.67;14.30;;;;;;;;;;4952016;29;20027;-75
2022/12/18 14:00:24;;;;;;;38.00;14.70;;;;;;;;;;4952345;28;20031;-76
2022/12/18 14:02:50;;;;;;;44.93;16.00;;;;;;;;;;4954116;29;20027;-75
2022/12/18 14:05:31;;;;;;;41.33;12.40;;;;;;;;;;4935968;29;20031;-76
2022/12/18 14:08:08;;;;;;;45.57;15.20;;;;;;;;;;4953610;29;20030;-75
2022/12/18 14:10:34;;;;;;;40.53;14.00;;;;;;;;;;4951177;29;20636;-82
2022/12/18 14:13:06;;;;;;;37.97;14.10;;;;;;;;;;4952524;29;20031;-81
2022/12/18 14:15:35;;;;;;;39.03;13.20;;;;;;;;;;4950763;29;20057;-78
2022/12/18 14:18:14;;;;;;;38.10;14.30;;;;;;;;;;4935264;29;20039;-79
2022/12/18 14:20:46;;;;;;;37.90;14.00;;;;;;;;;;4935046;29;20062;-80
2022/12/18 14:23:44;;;;;;;;;;;;;;;;;;4954298;29;20034;-80
2022/12/18 14:26:31;;;;;;;34.47;11.93;;;;;;;;;;4921742;29;20272;-81
2022/12/18 14:28:58;;;;;;;35.27;12.03;;;;;;;;;;4951307;29;20732;-79
2022/12/18 14:31:27;;;;;;;41.87;13.97;;;;;;;;;;4951965;29;20020;-81
2022/12/18 14:33:53;;;;;;;37.77;14.07;;;;;;;;;;4952123;29;20034;-75
2022/12/18 14:36:24;;;;;;;38.10;15.27;;;;;;;;;;4934467;29;20027;-75
2022/12/18 14:38:53;;;;;;;35.17;14.70;;;;;;;;;;4967171;28;20412;-76
2022/12/18 14:41:20;;;;;;;40.80;14.83;;;;;;;;;;4952413;28;20543;-75
2022/12/18 14:43:51;;;;;;;50.70;16.10;;;;;;;;;;4950601;28;20070;-77
2022/12/18 14:46:38;;;;;;;37.20;14.20;;;;;;;;;;4952402;29;20062;-77
2022/12/18 14:49:23;;;;;;;32.07;13.33;;;;;;;;;;4951173;29;20066;-75